createdAt,value
2023-05-13T00:01:09.664Z,2.47
2023-05-13T00:03:36.418Z,3.95
2023-05-13T00:06:03.383Z,2.83
2023-05-13T00:08:30.541Z,3.22
2023-05-13T00:10:57.282Z,3.40
2023-05-13T00:13:23.958Z,4.63
2023-05-13T00:15:51.124Z,3.33
2023-05-13T00:18:17.958Z,2.88
2023-05-13T00:20:44.660Z,2.65
2023-05-13T00:23:11.555Z,4.93
2023-05-13T00:25:38.331Z,2.10
2023-05-13T00:28:05.285Z,3.17
2023-05-13T00:30:32.445Z,2.75
2023-05-13T00:33:00.393Z,2.22
2023-05-13T00:35:27.102Z,3.80
2023-05-13T00:37:53.809Z,3.42
2023-05-13T00:40:22.745Z,2.72
2023-05-13T00:42:50.016Z,4.75
2023-05-13T00:45:17.204Z,2.38
2023-05-13T00:47:43.983Z,2.70
2023-05-13T00:50:11.209Z,2.28
2023-05-13T00:52:38.912Z,4.72
2023-05-13T00:55:06.101Z,2.72
2023-05-13T00:57:33.004Z,1.90
2023-05-13T01:00:00.699Z,2.80
2023-05-13T01:02:39.711Z,3.30
2023-05-13T01:05:25.238Z,2.67
2023-05-13T01:08:08.066Z,3.67
2023-05-13T01:11:04.078Z,2.85
2023-05-13T01:13:38.225Z,3.28
2023-05-13T01:16:08.807Z,2.33
2023-05-13T01:18:41.753Z,6.10
2023-05-13T01:21:08.483Z,2.50
2023-05-13T01:23:35.322Z,1.80
2023-05-13T01:26:02.402Z,4.18
2023-05-13T01:28:29.128Z,3.67
2023-05-13T01:30:58.681Z,2.03
2023-05-13T01:33:25.494Z,3.83
2023-05-13T01:35:52.278Z,2.42
2023-05-13T01:38:19.518Z,2.47
2023-05-13T01:40:46.593Z,3.78
2023-05-13T01:43:13.319Z,2.20
2023-05-13T01:45:40.032Z,3.55
2023-05-13T01:48:06.830Z,1.67
2023-05-13T01:50:35.467Z,2.88
2023-05-13T01:53:02.128Z,3.20
2023-05-13T01:55:28.815Z,3.70
2023-05-13T01:57:55.522Z,2.95
2023-05-13T02:00:22.668Z,3.83
2023-05-13T02:02:49.683Z,3.20
2023-05-13T02:05:16.785Z,2.22
2023-05-13T02:07:43.518Z,2.05
2023-05-13T02:10:10.681Z,2.50
2023-05-13T02:12:37.429Z,2.70
2023-05-13T02:15:05.199Z,2.28
2023-05-13T02:17:32.440Z,2.10
2023-05-13T02:19:59.154Z,2.15
2023-05-13T02:22:25.977Z,2.67
2023-05-13T02:24:52.632Z,4.32
2023-05-13T02:27:20.864Z,2.78
2023-05-13T02:29:47.642Z,1.70
2023-05-13T02:32:14.427Z,2.92
2023-05-13T02:34:41.248Z,4.85
2023-05-13T02:37:08.388Z,2.35
2023-05-13T02:39:36.821Z,4.57
2023-05-13T02:42:03.869Z,2.08
2023-05-13T02:44:30.613Z,2.22
2023-05-13T02:46:57.287Z,4.28
2023-05-13T02:49:23.966Z,2.80
2023-05-13T02:51:50.793Z,1.92
2023-05-13T02:54:17.569Z,2.65
2023-05-13T02:56:44.275Z,2.50
2023-05-13T02:59:11.250Z,2.90
2023-05-13T03:01:39.489Z,1.90
2023-05-13T03:04:06.199Z,4.07
2023-05-13T03:06:33.015Z,1.80
2023-05-13T03:08:59.743Z,3.67
2023-05-13T03:11:26.845Z,2.83
2023-05-13T03:13:53.649Z,2.88
2023-05-13T03:16:20.574Z,3.92
2023-05-13T03:18:47.386Z,3.53
2023-05-13T03:21:14.099Z,3.05
2023-05-13T03:23:41.047Z,1.70
2023-05-13T03:26:07.752Z,1.95
2023-05-13T03:28:34.431Z,3.08
2023-05-13T03:31:01.161Z,2.53
2023-05-13T03:33:29.798Z,2.67
2023-05-13T03:35:56.610Z,2.60
2023-05-13T03:38:23.317Z,1.95
2023-05-13T03:40:50.028Z,2.55
2023-05-13T03:43:16.681Z,3.00
2023-05-13T03:45:47.657Z,2.22
2023-05-13T03:48:15.123Z,3.85
2023-05-13T03:50:42.735Z,3.20
2023-05-13T03:53:12.394Z,2.72
2023-05-13T03:55:39.177Z,2.10
2023-05-13T03:58:17.067Z,2.38
2023-05-13T04:00:46.692Z,3.70
2023-05-13T04:03:17.335Z,5.80
2023-05-13T04:05:46.166Z,3.33
2023-05-13T04:08:13.598Z,3.28
2023-05-13T04:10:40.523Z,3.15
2023-05-13T04:13:08.068Z,1.85
2023-05-13T04:15:34.803Z,2.28
2023-05-13T04:18:01.562Z,2.72
2023-05-13T04:20:29.185Z,4.32
2023-05-13T04:22:56.205Z,3.30
2023-05-13T04:25:22.922Z,3.05
2023-05-13T04:27:49.779Z,2.28
2023-05-13T04:30:16.602Z,2.40
2023-05-13T04:32:45.294Z,3.83
2023-05-13T04:35:13.026Z,3.05
2023-05-13T04:37:39.715Z,2.00
2023-05-13T04:40:08.136Z,2.33
2023-05-13T04:42:35.001Z,3.25
2023-05-13T04:45:01.801Z,2.20
2023-05-13T04:47:29.135Z,3.97
2023-05-13T04:49:56.026Z,3.17
2023-05-13T04:52:23.067Z,2.47
2023-05-13T04:54:50.091Z,2.50
2023-05-13T04:57:16.887Z,2.10
2023-05-13T04:59:44.639Z,2.17
2023-05-13T05:02:12.405Z,2.58
2023-05-13T05:04:39.596Z,3.88
2023-05-13T05:07:06.300Z,3.00
2023-05-13T05:09:33.250Z,2.33
2023-05-13T05:12:00.375Z,2.22
2023-05-13T05:14:27.317Z,5.97
2023-05-13T05:16:54.261Z,2.22
2023-05-13T05:19:24.152Z,2.55
2023-05-13T05:21:51.895Z,2.72
2023-05-13T05:24:19.133Z,3.03
2023-05-13T05:26:46.144Z,2.67
2023-05-13T05:29:14.430Z,4.80
2023-05-13T05:31:41.352Z,2.78
2023-05-13T05:34:08.151Z,2.33
2023-05-13T05:36:36.104Z,2.90
2023-05-13T05:39:04.724Z,2.22
2023-05-13T05:41:31.378Z,2.20
2023-05-13T05:43:58.435Z,2.17
2023-05-13T05:46:25.697Z,4.32
2023-05-13T05:48:52.937Z,4.13
2023-05-13T05:51:19.947Z,3.00
2023-05-13T05:53:47.072Z,2.83
2023-05-13T05:56:15.257Z,3.08
2023-05-13T05:58:42.898Z,3.33
2023-05-13T06:01:09.769Z,1.90
2023-05-13T06:03:37.095Z,3.20
2023-05-13T06:06:03.989Z,2.83
2023-05-13T06:08:31.283Z,6.05
2023-05-13T06:10:58.700Z,3.40
2023-05-13T06:13:26.542Z,3.90
2023-05-13T06:15:53.733Z,3.85
2023-05-13T06:18:21.294Z,5.97
2023-05-13T06:20:48.069Z,3.38
2023-05-13T06:23:15.212Z,5.97
2023-05-13T06:25:42.507Z,6.72
2023-05-13T06:28:10.893Z,5.45
2023-05-13T06:30:38.698Z,7.78
2023-05-13T06:33:05.494Z,5.25
2023-05-13T06:35:32.257Z,5.38
2023-05-13T06:37:59.024Z,5.15
2023-05-13T06:40:25.774Z,6.57
2023-05-13T06:42:52.502Z,4.80
2023-05-13T06:45:23.149Z,4.22
2023-05-13T06:47:51.394Z,6.20
2023-05-13T06:50:19.082Z,4.95
2023-05-13T06:52:45.921Z,10.43
2023-05-13T06:55:14.952Z,6.00
2023-05-13T06:57:43.876Z,4.20
2023-05-13T07:00:11.100Z,4.82
2023-05-13T07:02:37.889Z,3.72
2023-05-13T07:05:05.247Z,6.15
2023-05-13T07:07:31.904Z,4.85
2023-05-13T07:09:58.695Z,7.43
2023-05-13T07:12:25.513Z,7.13
2023-05-13T07:14:52.282Z,4.65
2023-05-13T07:17:18.974Z,3.35
2023-05-13T07:19:46.440Z,5.22
2023-05-13T07:22:13.655Z,5.43
2023-05-13T07:24:41.823Z,5.45
2023-05-13T07:27:08.579Z,4.47
2023-05-13T07:29:35.357Z,6.15
2023-05-13T07:32:05.785Z,7.55
2023-05-13T07:34:32.661Z,9.05
2023-05-13T07:36:59.432Z,6.75
2023-05-13T07:39:26.729Z,16.48
2023-05-13T07:41:53.705Z,18.58
2023-05-13T07:44:20.489Z,11.73
2023-05-13T07:46:48.245Z,7.50
2023-05-13T07:49:15.305Z,10.00
2023-05-13T07:51:42.282Z,7.53
2023-05-13T07:54:09.488Z,7.90
2023-05-13T07:56:37.977Z,10.25
2023-05-13T07:59:04.897Z,13.20
2023-05-13T08:01:31.586Z,5.00
2023-05-13T08:03:58.639Z,8.00
2023-05-13T08:06:25.661Z,6.85
2023-05-13T08:08:52.421Z,6.13
2023-05-13T08:11:19.148Z,8.43
2023-05-13T08:13:46.238Z,26.20
2023-05-13T08:16:13.125Z,13.50
2023-05-13T08:18:39.984Z,17.13
2023-05-13T08:21:06.719Z,10.02
2023-05-13T08:23:44.206Z,8.27
2023-05-13T08:26:12.015Z,13.32
2023-05-13T08:28:38.775Z,9.52
2023-05-13T08:31:05.441Z,8.35
2023-05-13T08:33:32.487Z,11.15
2023-05-13T08:35:59.989Z,21.60
2023-05-13T08:38:26.746Z,19.45
2023-05-13T08:40:53.635Z,6.28
2023-05-13T08:43:20.553Z,12.48
2023-05-13T08:45:48.099Z,17.40
2023-05-13T08:48:16.059Z,11.00
2023-05-13T08:50:43.100Z,16.25
2023-05-13T08:53:11.366Z,15.38
2023-05-13T08:55:40.240Z,10.55
2023-05-13T08:58:07.281Z,12.80
2023-05-13T09:00:34.681Z,11.23
2023-05-13T09:03:01.794Z,14.85
2023-05-13T09:05:28.791Z,12.32
2023-05-13T09:07:55.770Z,12.68
2023-05-13T09:10:22.541Z,16.73
2023-05-13T09:12:53.640Z,9.10
2023-05-13T09:15:26.830Z,12.05
2023-05-13T09:18:04.392Z,10.38
2023-05-13T09:20:31.228Z,19.15
2023-05-13T09:23:00.505Z,11.32
2023-05-13T09:25:27.496Z,9.63
2023-05-13T09:27:57.746Z,7.80
2023-05-13T09:30:29.233Z,7.78
2023-05-13T09:33:16.982Z,9.52
2023-05-13T09:35:45.109Z,8.75
2023-05-13T09:38:19.324Z,5.22
2023-05-13T09:41:02.350Z,7.47
2023-05-13T09:43:32.212Z,7.78
2023-05-13T09:46:01.963Z,8.85
2023-05-13T09:48:29.680Z,9.85
2023-05-13T09:50:58.329Z,12.32
2023-05-13T09:53:25.873Z,7.18
2023-05-13T09:55:56.710Z,7.53
2023-05-13T09:58:25.148Z,7.28
2023-05-13T10:00:53.000Z,7.85
2023-05-13T10:03:19.781Z,6.10
2023-05-13T10:05:46.517Z,7.70
2023-05-13T10:08:13.749Z,11.13
2023-05-13T10:10:41.228Z,6.40
2023-05-13T10:13:14.954Z,7.90
2023-05-13T10:15:50.409Z,6.25
2023-05-13T10:18:18.108Z,6.30
2023-05-13T10:20:45.283Z,7.45
2023-05-13T10:23:12.024Z,9.63
2023-05-13T10:25:38.774Z,5.13
2023-05-13T10:28:05.617Z,6.22
2023-05-13T10:30:32.656Z,7.93
2023-05-13T10:32:59.730Z,5.63
2023-05-13T10:35:29.833Z,6.75
2023-05-13T10:38:03.526Z,4.90
2023-05-13T10:40:51.578Z,8.55
2023-05-13T10:43:28.728Z,6.45
2023-05-13T10:46:01.120Z,4.60
2023-05-13T10:48:38.667Z,4.45
2023-05-13T10:51:08.491Z,5.85
2023-05-13T10:53:44.251Z,6.82
2023-05-13T10:56:10.958Z,5.82
2023-05-13T10:58:38.407Z,5.15
2023-05-13T11:01:19.100Z,4.97
2023-05-13T11:03:53.589Z,7.28
2023-05-13T11:06:25.170Z,5.13
2023-05-13T11:08:55.090Z,6.28
2023-05-13T11:11:22.888Z,8.07
2023-05-13T11:14:03.804Z,8.60
2023-05-13T11:16:30.514Z,6.10
2023-05-13T11:18:58.077Z,4.50
2023-05-13T11:21:35.999Z,5.97
2023-05-13T11:24:04.132Z,7.50
2023-05-13T11:26:52.986Z,4.70
2023-05-13T11:29:36.174Z,5.10
2023-05-13T11:32:06.914Z,6.55
2023-05-13T11:34:34.054Z,7.38
2023-05-13T11:37:03.815Z,4.88
2023-05-13T11:39:30.958Z,5.32
2023-05-13T11:42:01.568Z,7.25
2023-05-13T11:44:28.810Z,4.63
2023-05-13T11:46:58.066Z,6.60
2023-05-13T11:49:32.177Z,10.05
2023-05-13T11:52:22.924Z,7.43
2023-05-13T11:54:54.074Z,9.05
2023-05-13T11:57:26.708Z,5.60
2023-05-13T12:00:02.299Z,6.88
2023-05-13T12:02:30.917Z,8.52
2023-05-13T12:05:01.910Z,9.63
2023-05-13T12:07:29.407Z,7.55
2023-05-13T12:09:59.859Z,6.80
2023-05-13T12:12:28.321Z,5.88
2023-05-13T12:14:56.251Z,6.07
2023-05-13T12:17:23.081Z,8.35
2023-05-13T12:20:09.754Z,5.88
2023-05-13T12:22:43.129Z,6.03
2023-05-13T12:25:34.895Z,6.78
2023-05-13T12:28:18.729Z,5.25
2023-05-13T12:30:58.011Z,7.47
2023-05-13T12:33:42.407Z,6.10
2023-05-13T12:36:33.666Z,5.22
2023-05-13T12:39:10.823Z,5.78
2023-05-13T12:41:41.675Z,6.20
2023-05-13T12:44:13.513Z,5.57
2023-05-13T12:46:50.673Z,5.60
2023-05-13T12:49:17.400Z,5.68
2023-05-13T12:51:44.057Z,4.60
2023-05-13T12:54:11.939Z,5.65
2023-05-13T12:56:41.676Z,4.85
2023-05-13T12:59:08.883Z,6.38
2023-05-13T13:01:36.315Z,5.93
2023-05-13T13:04:03.212Z,5.25
2023-05-13T13:06:32.321Z,4.68
2023-05-13T13:09:00.177Z,4.82
2023-05-13T13:11:26.893Z,5.00
2023-05-13T13:13:53.605Z,4.88
2023-05-13T13:16:20.432Z,5.28
2023-05-13T13:18:47.577Z,5.43
2023-05-13T13:21:14.474Z,4.53
2023-05-13T13:23:41.173Z,5.22
2023-05-13T13:26:07.942Z,7.13
2023-05-13T13:28:34.619Z,5.63
2023-05-13T13:31:01.750Z,6.95
2023-05-13T13:33:28.457Z,4.43
2023-05-13T13:35:55.213Z,7.82
2023-05-13T13:38:21.980Z,8.77
2023-05-13T13:40:48.707Z,5.88
2023-05-13T13:43:15.482Z,8.20
2023-05-13T13:45:42.255Z,5.53
2023-05-13T13:48:09.042Z,5.85
2023-05-13T13:50:35.843Z,8.82
2023-05-13T13:53:02.616Z,5.88
2023-05-13T13:55:30.558Z,6.25
2023-05-13T13:57:57.215Z,5.20
2023-05-13T14:00:24.146Z,5.30
2023-05-13T14:02:51.045Z,6.95
2023-05-13T14:05:17.968Z,7.93
2023-05-13T14:07:44.693Z,7.32
2023-05-13T14:10:11.440Z,4.47
2023-05-13T14:12:38.382Z,6.25
2023-05-13T14:15:05.865Z,5.65
2023-05-13T14:17:33.273Z,7.85
2023-05-13T14:20:01.506Z,4.10
2023-05-13T14:22:28.221Z,5.32
2023-05-13T14:24:54.946Z,5.03
2023-05-13T14:27:24.358Z,4.75
2023-05-13T14:29:51.377Z,4.95
2023-05-13T14:32:18.181Z,4.28
2023-05-13T14:34:44.920Z,7.28
2023-05-13T14:37:11.776Z,4.57
2023-05-13T14:39:38.484Z,4.40
2023-05-13T14:42:05.944Z,7.30
2023-05-13T14:44:32.637Z,6.32
2023-05-13T14:47:01.277Z,4.07
2023-05-13T14:49:29.844Z,5.82
2023-05-13T14:51:56.902Z,6.18
2023-05-13T14:54:23.669Z,4.22
2023-05-13T14:56:51.321Z,4.97
2023-05-13T14:59:18.136Z,5.82
2023-05-13T15:01:44.994Z,5.00
2023-05-13T15:04:11.697Z,8.80
2023-05-13T15:06:38.815Z,6.15
2023-05-13T15:09:06.112Z,6.18
2023-05-13T15:11:33.363Z,5.60
2023-05-13T15:14:01.528Z,4.57
2023-05-13T15:16:30.164Z,4.25
2023-05-13T15:18:56.976Z,5.40
2023-05-13T15:21:23.704Z,4.20
2023-05-13T15:23:50.545Z,6.32
2023-05-13T15:26:17.289Z,5.20
2023-05-13T15:28:43.983Z,6.25
2023-05-13T15:31:10.719Z,4.70
2023-05-13T15:33:37.485Z,4.90
2023-05-13T15:36:05.959Z,5.82
2023-05-13T15:38:32.635Z,5.10
2023-05-13T15:41:00.232Z,3.83
2023-05-13T15:43:27.361Z,6.50
2023-05-13T15:45:54.991Z,4.90
2023-05-13T15:48:21.907Z,4.45
2023-05-13T15:50:48.691Z,3.97
2023-05-13T15:53:15.520Z,6.10
2023-05-13T15:55:42.234Z,4.25
2023-05-13T15:58:08.909Z,5.85
2023-05-13T16:00:35.608Z,4.10
2023-05-13T16:03:02.395Z,6.68
2023-05-13T16:05:30.088Z,6.35
2023-05-13T16:07:57.283Z,9.55
2023-05-13T16:10:24.653Z,6.05
2023-05-13T16:12:51.608Z,4.55
2023-05-13T16:15:18.357Z,5.20
2023-05-13T16:17:45.161Z,6.53
2023-05-13T16:20:13.377Z,10.13
2023-05-13T16:22:40.445Z,7.68
2023-05-13T16:25:08.874Z,7.53
2023-05-13T16:27:35.831Z,5.75
2023-05-13T16:30:03.336Z,5.95
2023-05-13T16:32:31.416Z,5.53
2023-05-13T16:34:58.166Z,4.30
2023-05-13T16:37:24.941Z,10.05
2023-05-13T16:39:51.657Z,5.05
2023-05-13T16:42:19.691Z,5.57
2023-05-13T16:44:47.198Z,6.53
2023-05-13T16:47:14.092Z,6.13
2023-05-13T16:49:41.160Z,6.43
2023-05-13T16:52:07.924Z,9.77
2023-05-13T16:54:34.678Z,5.70
2023-05-13T16:57:01.743Z,5.22
2023-05-13T16:59:29.001Z,8.27
2023-05-13T17:01:56.363Z,5.93
2023-05-13T17:04:23.081Z,6.05
2023-05-13T17:06:49.804Z,5.03
2023-05-13T17:09:16.616Z,4.85
2023-05-13T17:11:43.414Z,5.95
2023-05-13T17:14:10.214Z,5.97
2023-05-13T17:16:37.088Z,4.47
2023-05-13T17:19:04.027Z,4.35
2023-05-13T17:21:31.654Z,6.20
2023-05-13T17:24:00.141Z,5.38
2023-05-13T17:26:27.764Z,8.18
2023-05-13T17:28:54.834Z,5.38
2023-05-13T17:31:22.200Z,4.32
2023-05-13T17:33:48.964Z,4.00
2023-05-13T17:36:15.647Z,5.97
2023-05-13T17:38:42.379Z,3.78
2023-05-13T17:41:09.186Z,6.18
2023-05-13T17:43:36.411Z,4.07
2023-05-13T17:46:03.707Z,4.90
2023-05-13T17:48:33.132Z,4.53
2023-05-13T17:51:01.797Z,4.15
2023-05-13T17:53:28.524Z,5.95
2023-05-13T17:55:55.407Z,5.28
2023-05-13T17:58:22.074Z,5.07
2023-05-13T18:00:49.143Z,6.10
2023-05-13T18:03:16.260Z,4.00
2023-05-13T18:05:43.194Z,5.07
2023-05-13T18:08:10.291Z,4.68
2023-05-13T18:10:37.098Z,9.05
2023-05-13T18:13:03.835Z,4.65
2023-05-13T18:15:31.538Z,4.50
2023-05-13T18:17:58.225Z,5.28
2023-05-13T18:20:25.171Z,5.20
2023-05-13T18:22:52.000Z,2.80
2023-05-13T18:25:18.775Z,5.35
2023-05-13T18:27:45.550Z,4.15
2023-05-13T18:30:12.632Z,7.97
2023-05-13T18:32:39.404Z,3.03
2023-05-13T18:35:06.537Z,4.50
2023-05-13T18:37:33.296Z,4.35
2023-05-13T18:40:02.058Z,3.45
2023-05-13T18:42:30.431Z,3.28
2023-05-13T18:44:57.104Z,3.28
2023-05-13T18:47:23.848Z,3.55
2023-05-13T18:49:50.557Z,3.13
2023-05-13T18:52:17.211Z,3.58
2023-05-13T18:54:43.976Z,3.83
2023-05-13T18:57:11.044Z,2.92
2023-05-13T18:59:38.211Z,4.88
2023-05-13T19:02:05.311Z,3.10
2023-05-13T19:04:32.286Z,3.47
2023-05-13T19:06:59.899Z,3.28
2023-05-13T19:09:26.724Z,5.07
2023-05-13T19:11:53.473Z,7.50
2023-05-13T19:14:20.278Z,3.70
2023-05-13T19:16:47.035Z,2.88
2023-05-13T19:19:13.799Z,3.20
2023-05-13T19:21:40.603Z,5.20
2023-05-13T19:24:07.343Z,3.67
2023-05-13T19:26:34.866Z,4.50
2023-05-13T19:29:02.112Z,3.67
2023-05-13T19:31:32.392Z,3.50
2023-05-13T19:34:01.342Z,3.22
2023-05-13T19:36:28.146Z,4.97
2023-05-13T19:38:55.221Z,3.03
2023-05-13T19:41:23.585Z,5.55
2023-05-13T19:43:50.542Z,5.07
2023-05-13T19:46:17.457Z,4.47
2023-05-13T19:48:44.314Z,4.97
2023-05-13T19:51:10.997Z,3.28
2023-05-13T19:53:37.756Z,3.15
2023-05-13T19:56:04.832Z,3.63
2023-05-13T19:58:32.417Z,7.65
2023-05-13T20:01:00.173Z,4.60
2023-05-13T20:03:27.112Z,8.52
2023-05-13T20:05:53.897Z,3.20
2023-05-13T20:08:21.045Z,4.78
2023-05-13T20:10:47.930Z,3.92
2023-05-13T20:13:14.596Z,5.20
2023-05-13T20:15:42.281Z,5.28
2023-05-13T20:18:09.148Z,4.47
2023-05-13T20:20:36.032Z,4.38
2023-05-13T20:23:02.750Z,4.90
2023-05-13T20:25:29.990Z,3.80
2023-05-13T20:27:57.710Z,4.32
2023-05-13T20:30:25.099Z,5.03
2023-05-13T20:32:52.230Z,3.72
2023-05-13T20:35:19.131Z,5.15
2023-05-13T20:37:46.927Z,3.70
2023-05-13T20:40:13.812Z,3.75
2023-05-13T20:42:40.556Z,4.45
2023-05-13T20:45:08.750Z,8.10
2023-05-13T20:47:36.276Z,3.63
2023-05-13T20:50:03.707Z,4.72
2023-05-13T20:52:31.706Z,4.32
2023-05-13T20:54:58.965Z,5.22
2023-05-13T20:57:25.702Z,3.65
2023-05-13T20:59:52.671Z,3.88
2023-05-13T21:02:19.406Z,3.85
2023-05-13T21:04:49.945Z,4.63
2023-05-13T21:07:16.704Z,6.90
2023-05-13T21:09:43.408Z,3.20
2023-05-13T21:12:10.232Z,3.40
2023-05-13T21:14:36.956Z,3.55
2023-05-13T21:17:03.850Z,3.45
2023-05-13T21:19:33.292Z,2.75
2023-05-13T21:22:02.325Z,3.05
2023-05-13T21:24:29.059Z,3.83
2023-05-13T21:26:55.813Z,3.45
2023-05-13T21:29:22.468Z,2.88
2023-05-13T21:31:49.264Z,6.47
2023-05-13T21:34:16.010Z,4.00
2023-05-13T21:36:42.750Z,5.13
2023-05-13T21:39:10.493Z,7.30
2023-05-13T21:41:37.633Z,5.63
2023-05-13T21:44:04.560Z,5.82
2023-05-13T21:46:32.985Z,4.90
2023-05-13T21:49:02.191Z,5.07
2023-05-13T21:51:28.956Z,5.25
2023-05-13T21:53:55.660Z,3.50
2023-05-13T21:56:22.355Z,4.85
2023-05-13T21:58:49.356Z,5.55
2023-05-13T22:01:16.067Z,4.78
2023-05-13T22:03:42.866Z,3.22
2023-05-13T22:06:09.529Z,6.22
2023-05-13T22:08:36.253Z,6.65
2023-05-13T22:11:03.973Z,3.67
2023-05-13T22:13:31.289Z,3.22
2023-05-13T22:15:58.581Z,4.60
2023-05-13T22:18:25.489Z,3.20
2023-05-13T22:20:52.296Z,3.95
2023-05-13T22:23:19.057Z,5.13
2023-05-13T22:25:45.748Z,5.68
2023-05-13T22:28:13.026Z,3.88
2023-05-13T22:30:39.758Z,3.63
2023-05-13T22:33:06.549Z,4.13
2023-05-13T22:35:36.386Z,4.28
2023-05-13T22:38:04.242Z,5.18
2023-05-13T22:40:31.481Z,4.82
2023-05-13T22:42:58.691Z,4.78
2023-05-13T22:45:25.670Z,3.00
2023-05-13T22:47:52.496Z,7.28
2023-05-13T22:50:19.437Z,4.22
2023-05-13T22:52:46.098Z,4.45
2023-05-13T22:55:12.771Z,3.42
2023-05-13T22:57:39.618Z,3.70
2023-05-13T23:00:07.231Z,4.25
2023-05-13T23:02:34.583Z,6.10
2023-05-13T23:05:01.460Z,5.18
2023-05-13T23:07:28.788Z,3.78
2023-05-13T23:09:55.670Z,4.05
2023-05-13T23:12:22.452Z,4.32
2023-05-13T23:14:49.204Z,3.97
2023-05-13T23:17:16.001Z,4.20
2023-05-13T23:19:42.726Z,3.20
2023-05-13T23:22:09.522Z,3.45
2023-05-13T23:24:36.242Z,3.53
2023-05-13T23:27:04.496Z,3.53
2023-05-13T23:29:31.224Z,3.72
2023-05-13T23:31:58.116Z,3.22
2023-05-13T23:34:24.996Z,3.63
2023-05-13T23:36:51.738Z,3.45
2023-05-13T23:39:18.414Z,4.78
2023-05-13T23:41:45.176Z,3.92
2023-05-13T23:44:12.031Z,4.53
2023-05-13T23:46:38.785Z,3.55
2023-05-13T23:49:06.887Z,4.05
2023-05-13T23:51:33.603Z,3.65
2023-05-13T23:54:00.907Z,3.65
2023-05-13T23:56:27.641Z,3.08
2023-05-13T23:58:54.315Z,2.85
